PDT,Max TemperatureF,Mean TemperatureF,Min TemperatureF,Max Dew PointF,MeanDew PointF,Min DewpointF,Max Humidity, Mean Humidity, Min Humidity, Max Sea Level PressureIn, Mean Sea Level PressureIn, Min Sea Level PressureIn, Max VisibilityMiles, Mean VisibilityMiles, Min VisibilityMiles, Max Wind SpeedMPH, Mean Wind SpeedMPH, Max Gust SpeedMPH,PrecipitationIn, CloudCover, Events, WindDirDegrees
2012-9-1,66,56,46,49,47,44,90,74,52,30.18,30.14,30.04,10,9,8,13,3,18,0.00,6,,343
2012-9-2,68,57,45,54,49,42,94,76,52,30.20,30.18,30.17,10,10,8,12,4,15,0.00,5,,276
2012-9-3,64,57,49,54,52,46,94,84,65,30.19,30.17,30.15,10,8,2,12,4,14,0.00,5,,301
2012-9-4,71,60,49,54,50,46,100,82,40,30.21,30.18,30.12,10,5,0,10,3,13,0.00,1,Fog,305
2012-9-5,67,57,46,54,50,43,100,89,68,30.12,30.04,29.94,10,4,0,12,2,29,0.00,4,Fog,245
2012-9-6,73,61,48,55,51,46,100,82,47,30.04,30.00,29.96,10,5,0,10,3,14,0.00,1,Fog,237
2012-9-7,89,69,48,54,49,45,86,57,16,30.11,30.06,30.01,10,10,9,10,3,13,0.00,0,,315
2012-9-8,63,58,53,57,54,51,94,86,75,30.04,30.01,29.97,10,5,1,14,5,20,0.00,7,,186
2012-9-9,60,56,52,56,54,51,94,89,74,30.01,29.97,29.94,10,4,1,14,5,21,0.55,8,Rain,199
2012-9-10,62,53,44,52,46,41,100,86,44,30.26,30.12,30.01,10,5,0,14,4,18,0.00,5,Fog,289
2012-9-11,63,51,39,47,43,38,93,75,42,30.34,30.31,30.26,10,9,8,15,4,21,0.00,2,,328
2012-9-12,76,57,38,46,39,34,89,56,13,30.33,30.28,30.20,10,10,10,13,4,17,0.00,0,,42
2012-9-13,84,63,42,46,41,35,77,50,12,30.19,30.12,30.05,10,9,6,10,3,13,0.00,0,,17
2012-9-14,71,57,42,52,45,40,93,79,39,30.09,30.07,30.05,10,6,0,12,2,14,0.00,0,Fog,280
2012-9-15,64,54,44,54,45,41,97,85,52,30.20,30.16,30.10,8,4,0,12,2,14,0.00,4,Fog,263
2012-9-16,64,52,40,51,45,37,97,85,58,30.22,30.19,30.11,10,5,0,9,2,13,0.00,2,Fog,218
2012-9-17,76,59,42,53,47,39,93,70,35,30.12,30.07,29.99,9,7,1,12,2,14,0.00,0,,245
2012-9-18,67,57,46,54,51,43,90,82,59,30.12,30.06,30.00,7,5,2,12,4,29,0.00,5,,185
2012-9-19,63,57,51,53,52,50,100,89,70,30.17,30.13,30.10,6,3,0,12,3,15,0.00,7,Fog,238
2012-9-20,55,53,50,52,49,48,100,91,77,30.13,30.11,30.10,7,3,0,10,1,35,0.00,8,Fog,240
2012-9-21,61,57,53,54,53,50,94,87,74,30.15,30.13,30.11,6,5,2,7,1,15,T,8,Rain,207
2012-9-22,66,54,41,52,47,40,94,73,41,30.17,30.15,30.14,8,6,4,13,3,16,0.00,3,,258
2012-9-23,65,52,38,50,43,36,93,75,43,30.17,30.15,30.13,8,7,5,13,2,15,0.00,0,,295
2012-9-24,60,51,41,55,48,39,94,89,80,30.18,30.15,30.14,6,4,0,9,1,12,T,7,Fog-Rain,340
2012-9-25,62,55,48,50,48,45,89,81,62,30.16,30.14,30.12,6,5,4,10,3,14,0.00,6,,253
2012-9-26,66,56,46,51,46,44,93,81,54,30.14,30.11,30.07,8,5,0,10,3,14,0.00,4,Fog,8
2012-9-27,72,56,40,51,44,38,93,74,36,30.08,30.03,29.96,8,6,1,10,3,13,0.00,1,,334
2012-9-28,67,57,46,59,51,45,94,84,45,30.10,30.01,29.95,8,4,1,10,2,14,0.02,6,Rain,271
2012-9-29,63,54,44,52,45,41,100,83,52,30.33,30.20,30.10,8,5,0,14,3,21,0.00,4,Fog,332
2012-9-30,69,54,38,48,43,38,93,69,37,30.41,30.37,30.32,10,9,8,12,5,16,0.00,2,,348